Decoded Metar for LIBG (GROTTAGLIE in ITALY) (IATA:TAR) | Meteo·Mobile Aviation Weather
aviador You're here:

LIBG Decoded Metar

GROTTAGLIE in ITALY
Report Time2019-03-21 17:50:00
UTC Time2019-03-22 15:04:30
Flight Rules Old
Wind010° at 17 kt
W.Decomp.*RWY 35: 16.3 kt HW 5.0 kt RCW
W.Rank010° ranks 1
Current wind is above 010° avg. (9.8)
Visibility9999 m
Phenomena:N/A
Clouds:N/A
Expected CloudBase > 2,000 ft AGL from Temp-Dew spread
CeilingNone
Temp13°C (ISA -2)
Dew Point08°C (72% RH)
AAT6.4°C
QNH1023 hPa
Density Alt-151 ft
Elevation226 ft
Report Wrong Elevation
Raw Report
METAR LIBG 211750Z 01017KT CAVOK 13/08 Q1023=

Extra information for LIBG:More info

Metar Taf Metar & Taf Last 4 Metars F.Rules Stats Wind Profile Meteogram Temp Stats Airport Information Weather charts Add Link Nearby VenuesMetar ALERT Operation Metar Decoded Social comments